createdAt,value
2019-05-06T00:02:43.575Z,99023.48
2019-05-06T00:06:52.008Z,99022.64
2019-05-06T00:11:00.259Z,99024.11
2019-05-06T00:15:08.160Z,99017.27
2019-05-06T00:19:16.082Z,99017.27
2019-05-06T00:23:39.002Z,99014.42
2019-05-06T00:28:06.152Z,99016.77
2019-05-06T00:32:15.044Z,99019.45
2019-05-06T00:36:23.753Z,99021.42
2019-05-06T00:40:35.659Z,99024.31
2019-05-06T00:44:44.302Z,99023.67
2019-05-06T00:48:54.193Z,99022.23
2019-05-06T00:53:04.625Z,99029.88
2019-05-06T00:57:13.967Z,99024.50
2019-05-06T01:01:27.007Z,99029.67
2019-05-06T01:05:33.755Z,99023.05
2019-05-06T01:09:43.827Z,99023.67
2019-05-06T01:14:06.046Z,99014.67
2019-05-06T01:18:14.260Z,99010.86
2019-05-06T01:22:24.500Z,99009.50
2019-05-06T01:26:33.726Z,99010.34
2019-05-06T01:30:44.374Z,99001.53
2019-05-06T01:34:53.673Z,99000.19
2019-05-06T01:39:28.196Z,98995.47
2019-05-06T01:43:36.925Z,98992.47
2019-05-06T01:47:44.542Z,98993.08
2019-05-06T01:51:54.614Z,98987.03
2019-05-06T01:56:03.653Z,98992.41
2019-05-06T02:00:14.064Z,98991.98
2019-05-06T02:04:24.310Z,98977.29
2019-05-06T02:08:33.702Z,98972.53
2019-05-06T02:12:41.330Z,98974.91
2019-05-06T02:16:49.422Z,98969.03
2019-05-06T02:21:02.409Z,98973.22
2019-05-06T02:25:14.299Z,98979.75
2019-05-06T02:29:24.813Z,98979.24
2019-05-06T02:33:37.956Z,98974.91
2019-05-06T02:37:46.723Z,98978.80
2019-05-06T02:41:55.733Z,98967.75
2019-05-06T02:46:04.624Z,98967.65
2019-05-06T02:50:15.319Z,98972.32
2019-05-06T02:54:23.629Z,98968.49
2019-05-06T02:58:33.022Z,98978.23
2019-05-06T03:02:44.914Z,98976.97
2019-05-06T03:06:53.278Z,98989.50
2019-05-06T03:11:03.630Z,98983.03
2019-05-06T03:15:16.227Z,98982.44
2019-05-06T03:19:24.361Z,98982.54
2019-05-06T03:23:35.469Z,98991.55
2019-05-06T03:27:46.977Z,98993.30
2019-05-06T03:31:56.352Z,98989.80
2019-05-06T03:36:15.436Z,98988.35
2019-05-06T03:40:14.573Z,98996.52
2019-05-06T03:44:23.937Z,98989.66
2019-05-06T03:48:35.358Z,99004.70
2019-05-06T03:52:45.076Z,99004.80
2019-05-06T03:56:55.601Z,99006.54
2019-05-06T04:01:03.958Z,99005.09
2019-05-06T04:05:13.295Z,99006.67
2019-05-06T04:09:24.078Z,99005.63
2019-05-06T04:13:33.172Z,99005.63
2019-05-06T04:18:03.638Z,99012.56
2019-05-06T04:22:48.076Z,99006.44
2019-05-06T04:27:06.502Z,99009.33
2019-05-06T04:31:14.925Z,99012.22
2019-05-06T04:35:23.193Z,99006.30
2019-05-06T04:39:33.002Z,99016.09
2019-05-06T04:43:43.840Z,99009.28
2019-05-06T04:47:53.506Z,99012.16
2019-05-06T04:52:03.663Z,99015.03
2019-05-06T04:56:14.129Z,99015.42
2019-05-06T05:00:23.247Z,99015.11
2019-05-06T05:04:32.785Z,99016.42
2019-05-06T05:08:42.573Z,99023.42
2019-05-06T05:13:03.370Z,99013.38
2019-05-06T05:17:25.305Z,99014.09
2019-05-06T05:21:32.983Z,99014.09
2019-05-06T05:25:42.625Z,99009.40
2019-05-06T05:29:52.227Z,99013.69
2019-05-06T05:34:02.112Z,99013.69
2019-05-06T05:38:09.883Z,99004.30
2019-05-06T05:42:27.525Z,99005.78
2019-05-06T05:46:35.427Z,99014.23
2019-05-06T05:50:45.165Z,99014.23
2019-05-06T05:54:55.582Z,98997.19
2019-05-06T05:59:03.301Z,98994.65
2019-05-06T06:03:12.928Z,98991.84
2019-05-06T06:07:22.918Z,98988.24
2019-05-06T06:12:08.245Z,98988.09
2019-05-06T06:16:44.749Z,98979.52
2019-05-06T06:21:17.334Z,98982.52
2019-05-06T06:25:14.189Z,98971.37
2019-05-06T06:29:22.791Z,98970.77
2019-05-06T06:33:32.965Z,98969.12
2019-05-06T06:38:02.629Z,98973.27
2019-05-06T06:42:09.886Z,98977.63
2019-05-06T06:46:18.636Z,98970.09
2019-05-06T06:50:26.330Z,98976.06
2019-05-06T06:54:34.561Z,98972.52
2019-05-06T06:59:02.544Z,98971.27
2019-05-06T07:03:32.710Z,98967.58
2019-05-06T07:07:47.144Z,98966.56
2019-05-06T07:11:52.580Z,98966.38
2019-05-06T07:16:02.783Z,98967.44
2019-05-06T07:20:13.234Z,98978.05
2019-05-06T07:24:22.852Z,98969.66
2019-05-06T07:28:32.673Z,98963.41
2019-05-06T07:32:42.381Z,98960.30
2019-05-06T07:36:49.772Z,98947.44
2019-05-06T07:41:14.892Z,98949.30
2019-05-06T07:45:42.240Z,98949.30
2019-05-06T07:49:53.144Z,98950.22
2019-05-06T07:54:02.839Z,98945.42
2019-05-06T07:58:13.571Z,98942.28
2019-05-06T08:02:22.848Z,98936.80
2019-05-06T08:06:32.169Z,98942.34
2019-05-06T08:10:42.251Z,98931.98
2019-05-06T08:14:49.743Z,98927.20
2019-05-06T08:18:59.291Z,98931.47
2019-05-06T08:23:27.298Z,98924.53
2019-05-06T08:27:35.601Z,98925.76
2019-05-06T08:31:43.821Z,98925.52
2019-05-06T08:35:54.540Z,98913.22
2019-05-06T08:40:03.355Z,98918.33
2019-05-06T08:44:12.747Z,98915.32
2019-05-06T08:48:21.998Z,98912.98
2019-05-06T08:52:43.899Z,98909.72
2019-05-06T08:56:52.414Z,98916.12
2019-05-06T09:01:06.970Z,98916.70
2019-05-06T09:05:15.453Z,98915.41
2019-05-06T09:09:24.717Z,98903.23
2019-05-06T09:13:32.844Z,98900.86
2019-05-06T09:17:42.061Z,98916.80
2019-05-06T09:21:50.119Z,98916.32
2019-05-06T09:25:57.907Z,98897.80
2019-05-06T09:30:14.220Z,98906.95
2019-05-06T09:34:37.276Z,98896.87
2019-05-06T09:38:44.898Z,98891.30
2019-05-06T09:42:53.220Z,98892.61
2019-05-06T09:47:02.437Z,98888.67
2019-05-06T09:51:13.098Z,98885.98
2019-05-06T09:55:34.021Z,98881.37
2019-05-06T09:59:42.159Z,98869.14
2019-05-06T10:03:49.982Z,98871.63
2019-05-06T10:07:57.912Z,98861.30
2019-05-06T10:12:05.723Z,98863.84
2019-05-06T10:16:13.600Z,98853.59
2019-05-06T10:20:22.348Z,98845.84
2019-05-06T10:24:32.259Z,98847.76
2019-05-06T10:28:52.378Z,98846.92
2019-05-06T10:33:02.165Z,98847.42
2019-05-06T10:37:44.002Z,98845.89
2019-05-06T10:42:13.237Z,98838.05
2019-05-06T10:46:22.517Z,98819.75
2019-05-06T10:50:35.103Z,98807.91
2019-05-06T10:54:42.794Z,98805.98
2019-05-06T10:58:52.778Z,98792.69
2019-05-06T11:03:19.406Z,98777.64
2019-05-06T11:07:31.278Z,98794.81
2019-05-06T11:11:38.685Z,98794.81
2019-05-06T11:15:46.942Z,98795.16
2019-05-06T11:19:54.797Z,98784.25
2019-05-06T11:24:05.984Z,98771.68
2019-05-06T11:28:43.816Z,98788.92
2019-05-06T11:33:04.858Z,98777.52
2019-05-06T11:37:27.989Z,98773.03
2019-05-06T11:41:36.300Z,98767.56
2019-05-06T11:45:46.559Z,98766.14
2019-05-06T11:49:56.686Z,98746.42
2019-05-06T11:54:16.497Z,98737.61
2019-05-06T11:58:32.680Z,98727.52
2019-05-06T12:02:44.253Z,98719.54
2019-05-06T12:06:52.614Z,98722.09
2019-05-06T12:10:59.895Z,98727.05
2019-05-06T12:15:08.488Z,98735.04
2019-05-06T12:19:16.249Z,98715.38
2019-05-06T12:23:24.214Z,98696.66
2019-05-06T12:27:47.528Z,98704.28
2019-05-06T12:32:14.319Z,98686.67
2019-05-06T12:36:22.924Z,98686.67
2019-05-06T12:40:32.438Z,98689.59
2019-05-06T12:44:41.438Z,98697.34
2019-05-06T12:48:52.151Z,98696.80
2019-05-06T12:53:01.111Z,98684.69
2019-05-06T12:57:12.617Z,98681.69
2019-05-06T13:01:20.991Z,98679.68
2019-05-06T13:05:28.917Z,98684.91
2019-05-06T13:09:36.744Z,98683.08
2019-05-06T13:13:56.596Z,98667.86
2019-05-06T13:17:55.179Z,98661.13
2019-05-06T13:22:03.961Z,98659.45
2019-05-06T13:26:13.201Z,98652.33
2019-05-06T13:30:22.827Z,98657.61
2019-05-06T13:34:33.324Z,98643.16
2019-05-06T13:38:42.639Z,98636.74
2019-05-06T13:43:08.264Z,98635.19
2019-05-06T13:47:25.842Z,98623.74
2019-05-06T13:51:35.154Z,98621.07
2019-05-06T13:55:42.996Z,98608.30
2019-05-06T13:59:53.260Z,98612.84
2019-05-06T14:04:03.752Z,98604.43
2019-05-06T14:08:13.042Z,98605.87
2019-05-06T14:12:22.095Z,98606.81
2019-05-06T14:16:33.294Z,98613.55
2019-05-06T14:20:42.769Z,98603.09
2019-05-06T14:25:09.124Z,98608.09
2019-05-06T14:29:23.506Z,98592.41
2019-05-06T14:33:32.282Z,98585.00
2019-05-06T14:37:42.171Z,98584.40
2019-05-06T14:41:53.434Z,98582.29
2019-05-06T14:46:01.737Z,98592.33
2019-05-06T14:50:14.191Z,98579.48
2019-05-06T14:54:21.720Z,98589.28
2019-05-06T14:58:29.073Z,98590.25
2019-05-06T15:02:37.399Z,98586.20
2019-05-06T15:06:45.198Z,98569.08
2019-05-06T15:10:53.745Z,98575.57
2019-05-06T15:15:03.845Z,98567.89
2019-05-06T15:19:12.886Z,98565.66
2019-05-06T15:23:22.430Z,98561.48
2019-05-06T15:27:30.014Z,98573.69
2019-05-06T15:31:57.189Z,98563.17
2019-05-06T15:36:12.896Z,98569.91
2019-05-06T15:40:31.886Z,98552.91
2019-05-06T15:44:35.260Z,98570.44
2019-05-06T15:48:42.079Z,98585.73
2019-05-06T15:52:53.621Z,98584.98
2019-05-06T15:57:00.614Z,98587.23
2019-05-06T16:01:08.516Z,98598.20
2019-05-06T16:05:20.097Z,98590.37
2019-05-06T16:09:26.096Z,98594.09
2019-05-06T16:13:34.097Z,98598.69
2019-05-06T16:17:42.689Z,98598.94
2019-05-06T16:21:52.352Z,98608.77
2019-05-06T16:26:02.814Z,98615.06
2019-05-06T16:30:13.128Z,98604.72
2019-05-06T16:34:22.760Z,98612.70
2019-05-06T16:38:32.349Z,98628.11
2019-05-06T16:42:45.345Z,98654.05
2019-05-06T16:46:52.141Z,98708.80
2019-05-06T16:50:59.987Z,98709.66
2019-05-06T16:55:11.607Z,98727.13
2019-05-06T16:59:19.447Z,98732.81
2019-05-06T17:03:42.840Z,98747.41
2019-05-06T17:07:52.591Z,98760.08
2019-05-06T17:12:04.294Z,98767.05
2019-05-06T17:16:10.487Z,98779.44
2019-05-06T17:20:19.069Z,98764.27
2019-05-06T17:24:26.821Z,98746.95
2019-05-06T17:28:44.254Z,98756.17
2019-05-06T17:32:55.358Z,98771.67
2019-05-06T17:37:13.181Z,98796.94
2019-05-06T17:41:23.728Z,98800.66
2019-05-06T17:46:01.082Z,98832.01
2019-05-06T17:49:59.656Z,98829.80
2019-05-06T17:54:08.449Z,98821.75
2019-05-06T17:58:16.530Z,98829.70
2019-05-06T18:02:25.516Z,98843.49
2019-05-06T18:06:33.535Z,98856.16
2019-05-06T18:10:42.673Z,98883.53
2019-05-06T18:14:53.381Z,98888.52
2019-05-06T18:19:03.135Z,98899.74
2019-05-06T18:23:12.890Z,98904.25
2019-05-06T18:27:22.623Z,98894.83
2019-05-06T18:31:30.389Z,98889.90
2019-05-06T18:35:38.365Z,98894.34
2019-05-06T18:39:46.117Z,98880.11
2019-05-06T18:43:53.789Z,98889.47
2019-05-06T18:48:02.781Z,98898.00
2019-05-06T18:52:12.980Z,98922.11
2019-05-06T18:56:19.738Z,98902.81
2019-05-06T19:00:28.228Z,98920.34
2019-05-06T19:04:42.195Z,98929.52
2019-05-06T19:08:56.231Z,98915.94
2019-05-06T19:13:03.715Z,98917.05
2019-05-06T19:17:13.174Z,98933.37
2019-05-06T19:21:24.233Z,98929.69
2019-05-06T19:25:33.973Z,98929.44
2019-05-06T19:29:38.923Z,98923.02
2019-05-06T19:33:46.393Z,98911.70
2019-05-06T19:37:54.166Z,98898.17
2019-05-06T19:42:04.704Z,98899.16
2019-05-06T19:46:12.084Z,98893.52
2019-05-06T19:50:23.549Z,98884.05
2019-05-06T19:54:29.536Z,98880.23
2019-05-06T19:58:37.379Z,98868.58
2019-05-06T20:02:44.925Z,98868.14
2019-05-06T20:07:02.624Z,98865.59
2019-05-06T20:11:25.534Z,98865.83
2019-05-06T20:15:37.540Z,98871.19
2019-05-06T20:19:45.425Z,98871.64
2019-05-06T20:23:53.318Z,98873.95
2019-05-06T20:28:02.369Z,98883.97
2019-05-06T20:32:12.149Z,98887.41
2019-05-06T20:36:22.394Z,98874.15
2019-05-06T20:40:32.438Z,98885.68
2019-05-06T20:44:39.142Z,98890.22
2019-05-06T20:48:47.562Z,98907.02
2019-05-06T20:52:55.778Z,98906.51
2019-05-06T20:57:03.691Z,98910.88
2019-05-06T21:01:11.336Z,98919.22
2019-05-06T21:05:19.205Z,98911.86
2019-05-06T21:09:26.937Z,98918.24
2019-05-06T21:13:35.753Z,98919.80
2019-05-06T21:17:44.222Z,98922.07
2019-05-06T21:21:52.721Z,98925.41
2019-05-06T21:26:03.204Z,98941.48
2019-05-06T21:30:13.080Z,98946.80
2019-05-06T21:34:22.324Z,98943.31
2019-05-06T21:38:30.591Z,98944.24
2019-05-06T21:42:38.389Z,98949.83
2019-05-06T21:46:46.305Z,98957.48
2019-05-06T21:50:54.369Z,98963.18
2019-05-06T21:55:02.626Z,98951.01
2019-05-06T21:59:12.945Z,98954.20
2019-05-06T22:03:22.802Z,98944.26
2019-05-06T22:07:30.495Z,98947.00
2019-05-06T22:11:38.511Z,98948.28
2019-05-06T22:15:46.909Z,98944.95
2019-05-06T22:19:55.159Z,98948.70
2019-05-06T22:24:04.793Z,98951.34
2019-05-06T22:28:12.609Z,98943.19
2019-05-06T22:32:20.084Z,98943.28
2019-05-06T22:36:27.542Z,98960.38
2019-05-06T22:40:35.635Z,98962.66
2019-05-06T22:44:44.883Z,98956.67
2019-05-06T22:48:54.559Z,98962.25
2019-05-06T22:53:02.380Z,98952.55
2019-05-06T22:57:12.031Z,98946.03
2019-05-06T23:01:47.992Z,98924.74
2019-05-06T23:05:56.039Z,98913.42
2019-05-06T23:10:04.934Z,98911.06
2019-05-06T23:14:27.627Z,98925.54
2019-05-06T23:18:24.400Z,98926.73
2019-05-06T23:22:32.536Z,98929.37
2019-05-06T23:26:40.261Z,98928.94
2019-05-06T23:30:48.583Z,98936.50
2019-05-06T23:34:56.373Z,98938.24
2019-05-06T23:39:58.161Z,98945.59
2019-05-06T23:44:45.964Z,98952.62
2019-05-06T23:49:26.792Z,98941.05
2019-05-06T23:54:12.609Z,98939.16
2019-05-06T23:58:18.253Z,98950.59
